Time;durP1;ratioP1;P1;durP2;ratioP2;P2;SDS_P1;SDS_P2;PMS_P1;PMS_P2;Temp;Humidity;BMP_temperature;BMP_pressure;BME280_temperature;BME280_humidity;BME280_pressure;Samples;Min_cycle;Max_cycle;Signal;HPM_P1;HPM_P2
2023/07/11 00:00:26;;;;;;;;;;;;;;;-144.99;88.16;52223.88;5022395;28;19974;-67
2023/07/11 00:02:53;;;;;;;;;;;;;;;-144.99;88.29;52166.81;5021309;28;20416;-65
2023/07/11 00:05:21;;;;;;;;;;;;;;;-144.99;88.69;52179.06;5026227;28;20290;-63
2023/07/11 00:07:48;;;;;;;;;;;;;;;-144.99;88.56;52195.34;5016041;28;20351;-63
2023/07/11 00:10:15;;;;;;;;;;;;;;;-144.99;88.57;52187.19;5023455;28;19966;-64
2023/07/11 00:12:42;;;;;;;;;;;;;;;-144.99;88.65;52189.25;5018017;28;19936;-63
2023/07/11 00:15:11;;;;;;;;;;;;;;;-144.99;88.53;52195.34;5022927;28;20071;-64
2023/07/11 00:17:38;;;;;;;;;;;;;;;-144.99;88.47;52183.13;5024308;28;19966;-62
2023/07/11 00:20:05;;;;;;;;;;;;;;;-144.99;88.82;52215.75;5026526;28;19969;-61
2023/07/11 00:22:33;;;;;;;;;;;;;;;-144.99;89.11;52193.31;5028373;28;20076;-62
2023/07/11 00:25:00;;;;;;;;;;;;;;;-144.99;89.39;52187.19;5022726;28;20131;-62
2023/07/11 00:27:27;;;;;;;;;;;;;;;-144.99;89.69;52179.06;5026675;28;20381;-62
2023/07/11 00:29:54;;;;;;;;;;;;;;;-144.99;89.73;52191.28;5025337;28;20295;-62
2023/07/11 00:32:20;;;;;;;;;;;;;;;-144.99;89.89;52187.19;5022682;28;19940;-62
2023/07/11 00:34:47;;;;;;;;;;;;;;;-144.99;90.16;52195.34;5025900;28;20429;-62
2023/07/11 00:37:13;;;;;;;;;;;;;;;-144.99;90.26;52203.50;5027860;28;20016;-63
2023/07/11 00:39:41;;;;;;;;;;;;;;;-144.99;90.37;52211.66;5028038;28;19929;-64
2023/07/11 00:42:09;;;;;;;;;;;;;;;-144.99;90.16;52187.19;5027493;28;19955;-64
2023/07/11 00:44:49;;;;;;;;;;;;;;;-144.99;90.42;52160.72;5021090;28;19964;-72
2023/07/11 00:47:16;;;;;;;;;;;;;;;-144.99;90.37;52199.44;5027816;28;20040;-67
2023/07/11 00:49:42;;;;;;;;;;;;;;;-144.99;90.55;52211.66;5022738;28;19936;-67
2023/07/11 00:52:09;;;;;;;;;;;;;;;-144.99;90.63;52215.75;5020657;28;19949;-67
2023/07/11 00:54:37;;;;;;;;;;;;;;;-144.99;90.67;52170.91;5025008;28;20425;-68
2023/07/11 00:57:08;;;;;;;;;;;;;;;-144.99;91.02;52185.16;5017656;28;19936;-66
2023/07/11 00:59:35;;;;;;;;;;;;;;;-144.99;91.10;52191.28;5017264;28;20482;-66
2023/07/11 01:02:04;;;;;;;;;;;;;;;-144.99;91.32;52221.84;5016609;28;19954;-66
2023/07/11 01:04:31;;;;;;;;;;;;;;;-144.99;91.83;52215.75;5021231;28;19953;-65
2023/07/11 01:06:58;;;;;;;;;;;;;;;-144.99;92.04;52185.16;5018077;28;19969;-65
2023/07/11 01:09:24;;;;;;;;;;;;;;;-144.99;92.42;52223.88;5018410;28;19975;-65
2023/07/11 01:11:53;;;;;;;;;;;;;;;-144.99;92.87;52179.06;5018684;28;19957;-64
2023/07/11 01:14:21;;;;;;;;;;;;;;;-144.99;92.85;52179.06;5018728;28;19943;-65
2023/07/11 01:16:48;;;;;;;;;;;;;;;-144.99;93.05;52174.97;5022164;28;20393;-65
2023/07/11 01:19:15;;;;;;;;;;;;;;;-144.99;92.94;52195.34;5018379;28;19944;-64
2023/07/11 01:21:43;;;;;;;;;;;;;;;-144.99;93.05;52191.28;5020675;28;19966;-64
2023/07/11 01:24:09;;;;;;;;;;;;;;;-144.99;93.27;52227.97;5023360;28;19940;-64
2023/07/11 01:26:36;;;;;;;;;;;;;;;-144.99;93.37;52209.63;5025530;28;20332;-64
2023/07/11 01:29:04;;;;;;;;;;;;;;;-144.99;93.66;52211.66;5021911;28;19941;-66
2023/07/11 01:31:33;;;;;;;;;;;;;;;-144.99;93.69;52187.19;5025875;28;20310;-67
2023/07/11 01:34:00;;;;;;;;;;;;;;;-144.99;93.55;52213.69;5019789;28;19955;-67
2023/07/11 01:36:27;;;;;;;;;;;;;;;-144.99;93.78;52187.19;5020030;28;20334;-67
2023/07/11 01:38:55;;;;;;;;;;;;;;;-144.99;93.85;52203.50;5022583;28;20393;-67
2023/07/11 01:41:21;;;;;;;;;;;;;;;-144.99;94.16;52203.50;5022308;28;19965;-63
2023/07/11 01:43:48;;;;;;;;;;;;;;;-144.99;94.04;52191.28;5021153;28;20030;-62
2023/07/11 01:46:15;;;;;;;;;;;;;;;-144.99;94.15;52207.59;5021127;28;20524;-62
2023/07/11 01:48:41;;;;;;;;;;;;;;;-144.99;94.16;52211.66;5020546;28;20392;-64
2023/07/11 01:51:08;;;;;;;;;;;;;;;-144.99;94.31;52217.78;5019174;28;19968;-63
2023/07/11 01:53:34;;;;;;;;;;;;;;;-144.99;94.11;52223.88;5020458;28;19950;-67
2023/07/11 01:56:04;;;;;;;;;;;;;;;-144.99;93.97;52187.19;5019437;28;20439;-66
2023/07/11 01:58:31;;;;;;;;;;;;;;;-144.99;94.05;52183.13;5019491;28;19939;-67
2023/07/11 02:00:58;;;;;;;;;;;;;;;-144.99;93.92;52223.88;5019073;28;19936;-66
2023/07/11 02:03:25;;;;;;;;;;;;;;;-144.99;93.69;52201.47;5023149;28;20392;-67
2023/07/11 02:05:52;;;;;;;;;;;;;;;-144.99;93.85;52227.97;5026941;28;19940;-66
2023/07/11 02:08:19;;;;;;;;;;;;;;;-144.99;93.82;52211.66;5027232;28;20463;-67
2023/07/11 02:10:46;;;;;;;;;;;;;;;-144.99;93.77;52191.28;5029582;28;20417;-64
2023/07/11 02:13:14;;;;;;;;;;;;;;;-144.99;94.13;52225.94;5029878;28;19940;-64
2023/07/11 02:15:41;;;;;;;;;;;;;;;-144.99;93.89;52227.97;5025433;28;20554;-63
2023/07/11 02:18:08;;;;;;;;;;;;;;;-144.99;94.10;52195.34;5028149;28;19935;-62
2023/07/11 02:20:39;;;;;;;;;;;;;;;-144.99;94.11;52203.50;5030214;28;20017;-64
2023/07/11 02:23:05;;;;;;;;;;;;;;;-144.99;94.21;52227.97;5031391;28;20438;-63
2023/07/11 02:25:32;;;;;;;;;;;;;;;-144.99;94.38;52236.13;5027042;28;19980;-62
2023/07/11 02:27:59;;;;;;;;;;;;;;;-144.99;94.38;52195.34;5030585;28;20390;-62
2023/07/11 02:30:26;;;;;;;;;;;;;;;-144.99;94.43;52195.34;5030862;28;19969;-62
2023/07/11 02:32:53;;;;;;;;;;;;;;;-144.99;94.55;52166.81;5030442;28;20419;-62
2023/07/11 02:35:20;;;;;;;;;;;;;;;-144.99;94.72;52201.47;5026647;28;19958;-62
2023/07/11 02:37:46;;;;;;;;;;;;;;;-144.99;95.06;52211.66;5025710;28;20377;-67
2023/07/11 02:40:13;;;;;;;;;;;;;;;-144.99;95.08;52211.66;5027051;28;19966;-63
2023/07/11 02:42:40;;;;;;;;;;;;;;;-144.99;95.21;52195.34;5030071;28;19939;-63
2023/07/11 02:45:07;;;;;;;;;;;;;;;-144.99;95.23;52191.28;5029497;28;19955;-64
2023/07/11 02:47:35;;;;;;;;;;;;;;;-144.99;95.37;52219.81;5020186;28;20418;-63
2023/07/11 02:50:01;;;;;;;;;;;;;;;-144.99;95.27;52179.06;5018501;28;19965;-66
2023/07/11 02:52:28;;;;;;;;;;;;;;;-144.99;95.37;52199.44;5018979;28;19940;-65
2023/07/11 02:54:55;;;;;;;;;;;;;;;-144.99;95.74;52225.94;5018230;28;19943;-64
2023/07/11 02:57:21;;;;;;;;;;;;;;;-144.99;95.81;52219.81;5018592;28;19944;-64
2023/07/11 02:59:48;;;;;;;;;;;;;;;-144.99;95.72;52195.34;5018580;28;19966;-65
2023/07/11 03:02:14;;;;;;;;;;;;;;;-144.99;95.71;52195.34;5018065;28;20444;-68
2023/07/11 03:04:42;;;;;;;;;;;;;;;-144.99;95.67;52244.28;5017628;28;19940;-70
2023/07/11 03:07:09;;;;;;;;;;;;;;;-144.99;95.60;52207.59;5025120;28;20060;-71
2023/07/11 03:09:37;;;;;;;;;;;;;;;-144.99;95.78;52195.34;5025241;28;19945;-71
2023/07/11 03:12:04;;;;;;;;;;;;;;;-144.99;96.16;52219.81;5027744;28;19933;-71
2023/07/11 03:14:30;;;;;;;;;;;;;;;-144.99;96.51;52211.66;5025586;28;20449;-71
2023/07/11 03:16:57;;;;;;;;;;;;;;;-144.99;96.38;52209.63;5022689;28;19983;-69
2023/07/11 03:19:24;;;;;;;;;;;;;;;-144.99;96.38;52227.97;5017511;28;19943;-70
2023/07/11 03:21:52;;;;;;;;;;;;;;;-144.99;96.08;52197.41;5016813;28;20398;-68
2023/07/11 03:24:18;;;;;;;;;;;;;;;-144.99;96.19;52197.41;5017476;28;20011;-68
2023/07/11 03:26:45;;;;;;;;;;;;;;;-144.99;96.55;52170.91;5018316;28;20003;-70
2023/07/11 03:29:13;;;;;;;;;;;;;;;-144.99;96.44;52203.50;5016342;28;20309;-70
2023/07/11 03:31:40;;;;;;;;;;;;;;;-144.99;96.87;52211.66;5018128;28;20301;-69
2023/07/11 03:34:06;;;;;;;;;;;;;;;-144.99;96.89;52170.91;5017408;28;19968;-70
2023/07/11 03:36:33;;;;;;;;;;;;;;;-144.99;97.39;52179.06;5015303;28;19964;-70
2023/07/11 03:39:03;;;;;;;;;;;;;;;-144.99;96.94;52164.78;5017794;28;19939;-70
2023/07/11 03:41:30;;;;;;;;;;;;;;;-144.99;97.60;52211.66;5016763;28;19926;-68
2023/07/11 03:43:56;;;;;;;;;;;;;;;-144.99;97.24;52207.59;5017981;28;19966;-67
2023/07/11 03:46:23;;;;;;;;;;;;;;;-144.99;96.83;52185.16;5017568;28;19963;-61
2023/07/11 03:48:50;;;;;;;;;;;;;;;-144.99;97.71;52183.13;5018288;28;19944;-64
2023/07/11 03:51:16;;;;;;;;;;;;;;;-144.99;97.35;52223.88;5016052;28;19963;-65
2023/07/11 03:53:43;;;;;;;;;;;;;;;-144.99;96.87;52195.34;5018122;28;20288;-65
2023/07/11 03:56:11;;;;;;;;;;;;;;;-144.99;96.73;52215.75;5017263;28;19967;-63
2023/07/11 03:58:37;;;;;;;;;;;;;;;-144.99;96.95;52223.88;5016334;28;19947;-65
2023/07/11 04:01:04;;;;;;;;;;;;;;;-144.99;96.93;52193.31;5019462;28;20214;-66
2023/07/11 04:03:31;;;;;;;;;;;;;;;-144.99;96.60;52177.00;5018610;28;20021;-66
2023/07/11 04:05:57;;;;;;;;;;;;;;;-144.99;96.45;52219.81;5017752;28;19932;-66
2023/07/11 04:08:24;;;;;;;;;;;;;;;-144.99;96.49;52187.19;5024512;28;19938;-64
2023/07/11 04:10:51;;;;;;;;;;;;;;;-144.99;96.03;52174.97;5024029;28;19959;-64
2023/07/11 04:13:19;;;;;;;;;;;;;;;-144.99;96.11;52219.81;5025796;28;19940;-68
2023/07/11 04:15:45;;;;;;;;;;;;;;;-144.99;95.92;52211.66;5021673;28;19965;-67
2023/07/11 04:18:12;;;;;;;;;;;;;;;-144.99;96.09;52199.44;5025970;28;19936;-68
2023/07/11 04:20:38;;;;;;;;;;;;;;;-144.99;95.83;52207.59;5018890;28;20441;-64
2023/07/11 04:23:05;;;;;;;;;;;;;;;-144.99;95.47;52183.13;5028081;28;19995;-62
2023/07/11 04:25:31;;;;;;;;;;;;;;;-144.99;95.66;52187.19;5020047;28;19942;-72
2023/07/11 04:27:58;;;;;;;;;;;;;;;-144.99;95.45;52217.78;5027309;28;19936;-69
2023/07/11 04:30:26;;;;;;;;;;;;;;;-144.99;95.35;52164.78;5028553;28;19959;-69
2023/07/11 04:32:53;;;;;;;;;;;;;;;-144.99;95.16;52191.28;5027948;28;19944;-69
2023/07/11 04:35:19;;;;;;;;;;;;;;;-144.99;95.01;52179.06;5015095;28;19945;-68
2023/07/11 04:37:46;;;;;;;;;;;;;;;-144.99;94.90;52189.25;5025538;28;20435;-70
2023/07/11 04:40:13;;;;;;;;;;;;;;;-144.99;94.59;52191.28;5023363;28;20367;-70
2023/07/11 04:42:40;;;;;;;;;;;;;;;-144.99;94.59;52174.97;5023612;28;19925;-69
2023/07/11 04:45:07;;;;;;;;;;;;;;;-144.99;94.65;52168.84;5021262;28;19944;-70
2023/07/11 04:47:35;;;;;;;;;;;;;;;-144.99;94.22;52170.91;5018673;28;19962;-69
2023/07/11 04:50:02;;;;;;;;;;;;;;;-144.99;93.89;52158.66;5022692;28;19944;-69
2023/07/11 04:52:28;;;;;;;;;;;;;;;-144.99;93.59;52170.91;5021206;28;19959;-70
2023/07/11 04:54:55;;;;;;;;;;;;;;;-144.99;93.24;52187.19;5022477;28;19947;-71
2023/07/11 04:57:22;;;;;;;;;;;;;;;-144.99;93.07;52195.34;5014384;28;19929;-71
2023/07/11 04:59:48;;;;;;;;;;;;;;;-144.99;92.69;52183.13;5015728;28;19944;-70
2023/07/11 05:02:15;;;;;;;;;;;;;;;-144.99;92.44;52162.75;5015961;28;19963;-70
2023/07/11 05:04:43;;;;;;;;;;;;;;;-144.99;92.52;52162.75;5024950;28;20057;-70
2023/07/11 05:07:10;;;;;;;;;;;;;;;-144.99;92.41;52170.91;5023233;28;20257;-69
2023/07/11 05:09:37;;;;;;;;;;;;;;;-144.99;92.35;52113.84;5023738;28;19945;-64
2023/07/11 05:12:04;;;;;;;;;;;;;;;-144.99;91.95;52146.44;5023882;28;19967;-65
2023/07/11 05:14:31;;;;;;;;;;;;;;;-144.99;91.74;52158.66;5016723;28;19947;-64
2023/07/11 05:16:57;;;;;;;;;;;;;;;-144.99;91.63;52138.28;5015692;28;19929;-65
2023/07/11 05:19:24;;;;;;;;;;;;;;;-144.99;91.81;52203.50;5016473;28;19959;-65
2023/07/11 05:21:52;;;;;;;;;;;;;;;-144.99;91.76;52162.75;5017602;28;19955;-64
2023/07/11 05:24:18;;;;;;;;;;;;;;;-144.99;91.60;52146.44;5017649;28;19945;-66
2023/07/11 05:26:45;;;;;;;;;;;;;;;-144.99;91.64;52207.59;5019380;28;20094;-65
2023/07/11 05:29:12;;;;;;;;;;;;;;;-144.99;92.23;52166.81;4329497;28;10000726;-70
2023/07/11 05:31:38;;;;;;;;;;;;;;;-144.99;92.16;52154.59;5020695;28;20387;-67
2023/07/11 05:34:05;;;;;;;;;;;;;;;-144.99;91.82;52154.59;5018762;28;19940;-65
2023/07/11 05:36:32;;;;;;;;;;;;;;;-144.99;91.48;52170.91;5019451;28;19929;-65
2023/07/11 05:39:02;;;;;;;;;;;;;;;-144.99;91.16;52174.97;5019173;28;20003;-65
2023/07/11 05:41:29;;;;;;;;;;;;;;;-144.99;91.40;52146.44;5020041;28;19929;-60
2023/07/11 05:43:56;;;;;;;;;;;;;;;-144.99;91.23;52126.06;5010680;28;19961;-65
2023/07/11 05:46:22;;;;;;;;;;;;;;;-144.99;90.71;52146.44;5014062;28;19971;-66
2023/07/11 05:48:49;;;;;;;;;;;;;;;-144.99;90.66;52121.97;5019944;28;19956;-65
2023/07/11 05:51:16;;;;;;;;;;;;;;;-144.99;90.69;52128.09;5011289;28;19930;-66
2023/07/11 05:53:43;;;;;;;;;;;;;;;-144.99;90.28;52142.38;5009669;28;19943;-69
2023/07/11 05:56:11;;;;;;;;;;;;;;;-144.99;89.88;52134.22;5018329;28;20464;-66
2023/07/11 05:58:38;;;;;;;;;;;;;;;-144.99;89.31;52162.75;5020545;28;19979;-64
2023/07/11 06:01:05;;;;;;;;;;;;;;;-144.99;88.94;52138.28;5027483;28;19962;-62
2023/07/11 06:03:32;;;;;;;;;;;;;;;-144.99;88.01;52166.81;5023985;28;19932;-62
2023/07/11 06:06:00;;;;;;;;;;;;;;;-144.99;87.92;52146.44;5018517;28;19929;-72
2023/07/11 06:08:27;;;;;;;;;;;;;;;-144.99;87.59;52158.66;5026794;28;20096;-73
2023/07/11 06:10:56;;;;;;;;;;;;;;;-144.99;87.37;52128.09;5025335;28;19967;-73
2023/07/11 06:13:24;;;;;;;;;;;;;;;-144.99;86.51;52146.44;5027348;28;20621;-73
2023/07/11 06:15:56;;;;;;;;;;;;;;;-144.99;86.11;52134.22;5014306;28;19940;-74
2023/07/11 06:18:23;;;;;;;;;;;;;;;-144.99;85.05;52162.75;5023282;28;19945;-74
2023/07/11 06:20:50;;;;;;;;;;;;;;;-144.99;84.44;52146.44;5027950;28;19959;-74
2023/07/11 06:23:16;;;;;;;;;;;;;;;-144.99;84.01;52136.25;5016079;28;19937;-71
2023/07/11 06:25:43;;;;;;;;;;;;;;;-144.99;82.79;52140.31;5026692;28;20302;-73
2023/07/11 06:28:10;;;;;;;;;;;;;;;-144.99;83.82;52142.38;5024880;28;20277;-72
2023/07/11 06:30:40;;;;;;;;;;;;;;;-144.99;83.73;52166.81;5024174;28;19957;-71
2023/07/11 06:33:07;;;;;;;;;;;;;;;-144.99;84.04;52142.38;5030503;28;20270;-71
2023/07/11 06:35:36;;;;;;;;;;;;;;;-144.99;83.28;52128.09;5022152;28;19940;-71
2023/07/11 06:38:03;;;;;;;;;;;;;;;-144.99;82.79;52128.09;5030227;28;19925;-72
2023/07/11 06:40:29;;;;;;;;;;;;;;;-144.99;83.00;52146.44;5029649;28;20481;-72
2023/07/11 06:42:56;;;;;;;;;;;;;;;-144.99;81.93;52107.72;5017892;28;19950;-72
2023/07/11 06:45:23;;;;;;;;;;;;;;;-144.99;81.84;52121.97;5016865;28;19929;-72
2023/07/11 06:47:51;;;;;;;;;;;;;;;-144.99;81.90;52119.94;5031027;28;19967;-71
2023/07/11 06:50:18;;;;;;;;;;;;;;;-144.99;81.08;52117.91;5028925;28;19972;-71
2023/07/11 06:52:45;;;;;;;;;;;;;;;-144.99;81.64;52109.75;5011669;28;19967;-70
2023/07/11 06:55:12;;;;;;;;;;;;;;;-144.99;81.55;52109.75;5026535;28;20043;-71
2023/07/11 06:57:39;;;;;;;;;;;;;;;-144.99;80.45;52126.06;5030218;28;20114;-71
2023/07/11 07:00:06;;;;;;;;;;;;;;;-144.99;80.41;52150.53;5028457;28;19966;-71
2023/07/11 07:02:33;;;;;;;;;;;;;;;-144.99;81.01;52126.06;5025534;28;19925;-71
2023/07/11 07:05:01;;;;;;;;;;;;;;;-144.99;79.92;52109.75;5030782;28;19925;-71
2023/07/11 07:07:28;;;;;;;;;;;;;;;-144.99;80.09;52126.06;5018780;28;19998;-71
2023/07/11 07:09:55;;;;;;;;;;;;;;;-144.99;79.55;52105.69;5022302;28;19981;-71
2023/07/11 07:12:24;;;;;;;;;;;;;;;-144.99;78.83;52174.97;5028017;28;20347;-70
2023/07/11 07:14:51;;;;;;;;;;;;;;;-144.99;78.78;52119.94;5019221;28;20366;-70
2023/07/11 07:17:17;;;;;;;;;;;;;;;-144.99;78.55;52115.88;5019966;28;20063;-71
2023/07/11 07:19:44;;;;;;;;;;;;;;;-144.99;78.39;52073.06;5023875;28;19938;-71
2023/07/11 07:22:12;;;;;;;;;;;;;;;-144.99;77.57;52101.59;5012072;28;19956;-70
2023/07/11 07:24:39;;;;;;;;;;;;;;;-144.99;78.57;52091.41;5015796;28;20048;-70
2023/07/11 07:27:06;;;;;;;;;;;;;;;-144.99;76.82;52105.69;5016679;28;20215;-71
2023/07/11 07:29:33;;;;;;;;;;;;;;;-144.99;77.28;52097.53;5020017;28;19939;-70
2023/07/11 07:32:00;;;;;;;;;;;;;;;-144.99;76.90;52126.06;5030027;28;19967;-73
2023/07/11 07:34:27;;;;;;;;;;;;;;;-144.99;76.27;52121.97;5030629;28;19965;-72
2023/07/11 07:36:53;;;;;;;;;;;;;;;-144.99;75.95;52130.13;5030365;28;19929;-71
2023/07/11 07:39:21;;;;;;;;;;;;;;;-144.99;75.81;52105.69;5014269;28;19940;-70
2023/07/11 07:41:48;;;;;;;;;;;;;;;-144.99;74.98;52113.84;5025994;28;19961;-70
2023/07/11 07:44:15;;;;;;;;;;;;;;;-144.99;75.01;52099.56;5030584;28;19925;-71
2023/07/11 07:46:41;;;;;;;;;;;;;;;-144.99;74.97;52077.16;5019517;28;19927;-71
2023/07/11 07:49:08;;;;;;;;;;;;;;;-144.99;74.65;52101.59;5026525;28;19978;-70
2023/07/11 07:51:34;;;;;;;;;;;;;;;-144.99;74.87;52097.53;5027137;28;19928;-72
2023/07/11 07:54:01;;;;;;;;;;;;;;;-144.99;73.73;52126.06;5020413;28;19966;-70
2023/07/11 07:56:30;;;;;;;;;;;;;;;-144.99;74.36;52128.09;5027591;28;19935;-70
2023/07/11 07:58:57;;;;;;;;;;;;;;;-144.99;74.18;52134.22;5030416;28;19935;-70
2023/07/11 08:01:23;;;;;;;;;;;;;;;-144.99;74.09;52073.06;5015248;28;19939;-70
2023/07/11 08:03:50;;;;;;;;;;;;;;;-144.99;74.30;52069.00;5026333;28;20151;-70
2023/07/11 08:06:19;;;;;;;;;;;;;;;-144.99;73.91;52089.38;5025288;28;19940;-70
2023/07/11 08:08:46;;;;;;;;;;;;;;;-144.99;72.86;52113.84;5021365;28;19964;-70
2023/07/11 08:11:13;;;;;;;;;;;;;;;-144.99;73.66;52093.44;5025085;28;19956;-69
2023/07/11 08:13:41;;;;;;;;;;;;;;;-144.99;73.52;52097.53;5025768;28;20252;-69
2023/07/11 08:16:08;;;;;;;;;;;;;;;-144.99;73.04;52091.41;5022545;28;19990;-70
2023/07/11 08:18:35;;;;;;;;;;;;;;;-144.99;72.00;52064.91;5025792;28;19967;-69
2023/07/11 08:21:01;;;;;;;;;;;;;;;-144.99;71.19;52052.69;5027234;28;19936;-69
2023/07/11 08:23:28;;;;;;;;;;;;;;;-144.99;70.98;52077.16;5022251;28;20422;-69
2023/07/11 08:25:55;;;;;;;;;;;;;;;-144.99;71.20;52073.06;5027541;28;19929;-70
2023/07/11 08:28:22;;;;;;;;;;;;;;;-144.99;70.80;52036.38;5027316;28;19925;-70
2023/07/11 08:30:51;;;;;;;;;;;;;;;-144.99;70.66;52077.16;5027341;28;19929;-68
2023/07/11 08:33:18;;;;;;;;;;;;;;;-144.99;70.35;52077.16;5019972;28;19998;-69
2023/07/11 08:35:45;;;;;;;;;;;;;;;-144.99;69.65;52064.91;5019796;28;20030;-70
2023/07/11 08:38:12;;;;;;;;;;;;;;;-144.99;69.67;52069.00;5027434;28;20386;-70
2023/07/11 08:40:41;;;;;;;;;;;;;;;-144.99;70.19;52060.84;5027095;28;20061;-69
2023/07/11 08:43:07;;;;;;;;;;;;;;;-144.99;70.59;52077.16;5024654;28;20453;-70
2023/07/11 08:45:39;;;;;;;;;;;;;;;-144.99;70.24;52040.47;5024338;28;20095;-70
2023/07/11 08:48:12;;;;;;;;;;;;;;;-144.99;69.79;52044.53;5019622;28;19936;-70
2023/07/11 08:50:45;;;;;;;;;;;;;;;-144.99;69.53;52052.69;5025808;28;20317;-70
2023/07/11 08:53:13;;;;;;;;;;;;;;;-144.99;69.55;52048.63;5017282;28;19975;-70
2023/07/11 08:55:50;;;;;;;;;;;;;;;-144.99;69.57;52028.22;5026844;28;19925;-69
2023/07/11 08:58:18;;;;;;;;;;;;;;;-144.99;69.47;52109.75;5025338;28;19977;-70
2023/07/11 09:00:47;;;;;;;;;;;;;;;-144.99;69.47;52073.06;5017303;28;19956;-70
2023/07/11 09:03:22;;;;;;;;;;;;;;;-144.99;68.98;52093.44;5021622;28;19946;-70
2023/07/11 09:05:58;;;;;;;;;;;;;;;-144.99;69.18;52109.75;5023163;28;20421;-70
2023/07/11 09:08:25;;;;;;;;;;;;;;;-144.99;68.84;52060.84;5027217;28;19933;-71
2023/07/11 09:10:58;;;;;;;;;;;;;;;-144.99;69.18;52058.81;5024219;28;20424;-71
2023/07/11 09:13:33;;;;;;;;;;;;;;;-144.99;69.17;52097.53;5027187;28;19933;-71
2023/07/11 09:16:06;;;;;;;;;;;;;;;-144.99;68.66;52056.78;5026366;28;19951;-69
2023/07/11 09:18:43;;;;;;;;;;;;;;;-144.99;67.63;52056.78;5017932;28;19936;-69
2023/07/11 09:21:14;;;;;;;;;;;;;;;-144.99;67.90;52077.16;5027582;28;19956;-69
2023/07/11 09:23:44;;;;;;;;;;;;;;;-144.99;67.93;52050.66;5025706;28;19962;-70
2023/07/11 09:26:13;;;;;;;;;;;;;;;-144.99;68.18;52028.22;5027024;28;19925;-71
2023/07/11 09:28:41;;;;;;;;;;;;;;;-144.99;67.55;52050.66;4669524;28;10000172;-69
2023/07/11 09:31:12;;;;;;;;;;;;;;;-144.99;67.77;52024.16;5027329;28;19957;-70
2023/07/11 09:33:42;;;;;;;;;;;;;;;-144.99;66.71;52020.09;5025509;28;19932;-69
2023/07/11 09:36:17;;;;;;;;;;;;;;;-144.99;66.46;52058.81;5029891;28;19959;-69
2023/07/11 09:38:49;;;;;;;;;;;;;;;-144.99;66.04;52024.16;4683308;28;9999939;-69
2023/07/11 09:41:17;;;;;;;;;;;;;;;-144.99;66.23;52036.38;5032043;28;20015;-70
2023/07/11 09:43:47;;;;;;;;;;;;;;;-144.99;65.46;52028.22;5021473;28;20204;-69
2023/07/11 09:46:14;;;;;;;;;;;;;;;-144.99;65.57;52058.81;5026411;28;20404;-70
2023/07/11 09:48:44;;;;;;;;;;;;;;;-144.99;65.34;52048.63;5026618;28;19936;-70
2023/07/11 09:51:17;;;;;;;;;;;;;;;-144.99;65.54;52040.47;5030664;28;19995;-70
2023/07/11 09:53:44;;;;;;;;;;;;;;;-144.99;65.09;52020.09;5023487;28;19947;-69
2023/07/11 09:56:12;;;;;;;;;;;;;;;-144.99;65.07;52058.81;5027840;28;19929;-64
2023/07/11 09:58:39;;;;;;;;;;;;;;;-144.99;64.64;52048.63;5027104;28;19929;-64
2023/07/11 10:01:06;;;;;;;;;;;;;;;-144.99;64.75;52020.09;5022363;28;20246;-71
2023/07/11 10:03:35;;;;;;;;;;;;;;;-144.99;64.97;52024.16;5027637;28;20061;-71
2023/07/11 10:06:03;;;;;;;;;;;;;;;-144.99;64.58;52024.16;5026318;28;19940;-72
2023/07/11 10:08:34;;;;;;;;;;;;;;;-144.99;64.50;52024.16;5030773;28;20275;-74
2023/07/11 10:11:03;;;;;;;;;;;;;;;-144.99;64.41;52009.91;5021071;28;19959;-72
2023/07/11 10:13:30;;;;;;;;;;;;;;;-144.99;64.05;52028.22;5030258;28;19939;-73
2023/07/11 10:15:57;;;;;;;;;;;;;;;-144.99;63.51;51999.69;5028621;28;20352;-72
2023/07/11 10:18:25;;;;;;;;;;;;;;;-144.99;64.23;52018.03;5025829;28;19929;-72
2023/07/11 10:20:54;;;;;;;;;;;;;;;-144.99;64.01;52003.78;5029037;28;19926;-72
2023/07/11 10:23:24;;;;;;;;;;;;;;;-144.99;63.66;51989.50;5031635;28;19947;-72
2023/07/11 10:25:52;;;;;;;;;;;;;;;-144.99;62.71;51983.41;5021136;28;19937;-72
2023/07/11 10:28:23;;;;;;;;;;;;;;;-144.99;62.46;51979.31;5026641;28;19935;-72
2023/07/11 10:30:51;;;;;;;;;;;;;;;-144.99;62.08;51944.69;5025195;28;19929;-72
2023/07/11 10:33:20;;;;;;;;;;;;;;;-144.99;61.81;51944.69;5025943;28;19983;-74
2023/07/11 10:35:50;;;;;;;;;;;;;;;-144.99;61.80;51993.59;5023609;28;19925;-72
2023/07/11 10:38:18;;;;;;;;;;;;;;;-144.99;61.12;51983.41;5025365;28;19925;-72
2023/07/11 10:40:49;;;;;;;;;;;;;;;-144.99;60.78;51969.13;5022040;28;19978;-70
2023/07/11 10:43:20;;;;;;;;;;;;;;;-144.99;61.09;51995.63;5030895;28;19946;-69
2023/07/11 10:45:49;;;;;;;;;;;;;;;-144.99;61.02;51985.44;5015096;28;19959;-70
2023/07/11 10:48:25;;;;;;;;;;;;;;;-144.99;61.65;51983.41;5030651;28;20281;-70
2023/07/11 10:50:55;;;;;;;;;;;;;;;-144.99;61.04;51934.50;5022128;28;20276;-70
2023/07/11 10:53:24;;;;;;;;;;;;;;;-144.99;61.27;51991.56;5029925;28;20050;-69
2023/07/11 10:55:57;;;;;;;;;;;;;;;-144.99;61.03;51938.56;5018981;28;19960;-71
2023/07/11 10:58:24;;;;;;;;;;;;;;;-144.99;60.89;51967.09;5028524;28;19983;-69
2023/07/11 11:01:03;;;;;;;;;;;;;;;-144.99;60.91;51930.41;5027893;28;20029;-69
2023/07/11 11:03:37;;;;;;;;;;;;;;;-144.99;60.93;51942.63;5022034;28;19926;-70
2023/07/11 11:06:11;;;;;;;;;;;;;;;-144.99;60.02;51946.72;5026044;28;20006;-70
2023/07/11 11:08:41;;;;;;;;;;;;;;;-144.99;60.43;51963.03;5025789;28;19933;-70
2023/07/11 11:11:12;;;;;;;;;;;;;;;-144.99;60.15;51954.88;5027649;28;20006;-70
2023/07/11 11:13:43;;;;;;;;;;;;;;;-144.99;59.56;51934.50;5023389;28;19949;-70
2023/07/11 11:16:16;;;;;;;;;;;;;;;-144.99;59.86;51936.53;5028219;28;19933;-70
2023/07/11 11:18:51;;;;;;;;;;;;;;;-144.99;60.57;51934.50;5020259;28;19932;-70
2023/07/11 11:21:23;;;;;;;;;;;;;;;-144.99;59.86;51893.72;5015078;28;19979;-73
2023/07/11 11:23:55;;;;;;;;;;;;;;;-144.99;59.82;51954.88;5021821;28;19959;-70
2023/07/11 11:26:33;;;;;;;;;;;;;;;-144.99;59.83;51922.25;5025118;28;19936;-71
2023/07/11 11:29:05;;;;;;;;;;;;;;;-144.99;59.74;51954.88;5024115;28;19925;-72
2023/07/11 11:31:32;;;;;;;;;;;;;;;-144.99;60.12;51950.78;5025277;28;19933;-71
2023/07/11 11:34:16;;;;;;;;;;;;;;;-144.99;59.81;51963.03;5024944;28;19929;-70
2023/07/11 11:36:50;;;;;;;;;;;;;;;-144.99;60.15;51944.69;5013592;28;19929;-71
2023/07/11 11:39:23;;;;;;;;;;;;;;;-144.99;60.50;51954.88;5018817;28;19925;-70
2023/07/11 11:41:56;;;;;;;;;;;;;;;-144.99;60.64;51973.22;5021806;28;20060;-70
2023/07/11 11:44:25;;;;;;;;;;;;;;;-144.99;60.21;51940.59;5025677;28;19925;-71
2023/07/11 11:46:52;;;;;;;;;;;;;;;-144.99;60.46;51979.31;5022064;28;19940;-69
2023/07/11 11:49:19;;;;;;;;;;;;;;;-144.99;60.48;51960.97;5023070;28;19951;-69
2023/07/11 11:51:46;;;;;;;;;;;;;;;-144.99;60.64;51963.03;5019173;28;20288;-69
2023/07/11 11:54:18;;;;;;;;;;;;;;;-144.99;60.48;51971.16;5025186;28;19936;-71
2023/07/11 11:56:46;;;;;;;;;;;;;;;-144.99;60.66;51942.63;5022095;28;20027;-70
2023/07/11 11:59:17;;;;;;;;;;;;;;;-144.99;61.04;51928.38;5026379;28;20495;-72
2023/07/11 12:01:55;;;;;;;;;;;;;;;-144.99;60.33;51918.19;5014819;28;19959;-69
2023/07/11 12:04:34;;;;;;;;;;;;;;;-144.99;60.47;51965.06;5020362;28;19960;-72
2023/07/11 12:07:06;;;;;;;;;;;;;;;-144.99;60.45;51954.88;5019725;28;19985;-70
2023/07/11 12:09:39;;;;;;;;;;;;;;;-144.99;60.35;51987.47;5025493;28;20415;-70
2023/07/11 12:12:07;;;;;;;;;;;;;;;-144.99;60.96;51983.41;5025942;28;19936;-71
2023/07/11 12:14:39;;;;;;;;;;;;;;;-144.99;61.08;51960.97;5025698;28;19945;-68
2023/07/11 12:17:06;;;;;;;;;;;;;;;-144.99;61.03;51967.09;5015903;28;19940;-69
2023/07/11 12:19:34;;;;;;;;;;;;;;;-144.99;60.92;51967.09;5025397;28;19929;-70
2023/07/11 12:22:04;;;;;;;;;;;;;;;-144.99;60.30;51950.78;5025963;28;19957;-69
2023/07/11 12:24:41;;;;;;;;;;;;;;;-144.99;60.82;51965.06;5017925;28;20400;-69
2023/07/11 12:27:25;;;;;;;;;;;;;;;-144.99;60.83;51987.47;5024529;28;19937;-70
2023/07/11 12:29:55;;;;;;;;;;;;;;;-144.99;60.49;51922.25;5015843;28;20274;-70